createdAt,value
2022-12-23T00:00:59.088Z,90.65
2022-12-23T00:03:32.970Z,90.87
2022-12-23T00:06:11.352Z,91.15
2022-12-23T00:08:44.585Z,90.69
2022-12-23T00:11:20.285Z,90.93
2022-12-23T00:14:18.433Z,90.72
2022-12-23T00:16:54.202Z,91.18
2022-12-23T00:19:26.975Z,90.88
2022-12-23T00:21:59.712Z,90.47
2022-12-23T00:24:32.384Z,90.88
2022-12-23T00:27:05.208Z,90.82
2022-12-23T00:29:37.906Z,90.64
2022-12-23T00:32:10.628Z,90.58
2022-12-23T00:34:43.382Z,90.65
2022-12-23T00:37:16.050Z,90.24
2022-12-23T00:40:08.138Z,90.10
2022-12-23T00:42:55.926Z,90.38
2022-12-23T00:45:28.715Z,90.41
2022-12-23T00:48:19.857Z,89.58
2022-12-23T00:50:53.332Z,90.02
2022-12-23T00:53:26.531Z,89.83
2022-12-23T00:55:59.086Z,90.00
2022-12-23T00:58:32.176Z,89.87
2022-12-23T01:01:23.914Z,89.92
2022-12-23T01:04:15.511Z,89.12
2022-12-23T01:06:48.404Z,89.97
2022-12-23T01:09:21.298Z,89.89
2022-12-23T01:11:54.440Z,90.14
2022-12-23T01:14:28.404Z,90.60
2022-12-23T01:17:01.865Z,89.51
2022-12-23T01:19:35.529Z,90.75
2022-12-23T01:22:08.597Z,89.68
2022-12-23T01:24:41.568Z,90.43
2022-12-23T01:27:14.446Z,89.95
2022-12-23T01:29:47.156Z,90.24
2022-12-23T01:32:20.369Z,89.86
2022-12-23T01:34:53.045Z,90.36
2022-12-23T01:37:25.751Z,90.19
2022-12-23T01:39:58.609Z,90.57
2022-12-23T01:42:43.837Z,90.45
2022-12-23T01:45:24.820Z,90.69
2022-12-23T01:48:26.421Z,91.03
2022-12-23T01:51:11.090Z,90.43
2022-12-23T01:53:56.164Z,90.77
2022-12-23T01:56:37.675Z,91.19
2022-12-23T01:59:35.028Z,91.36
2022-12-23T02:02:27.131Z,90.63
2022-12-23T02:05:00.887Z,91.21
2022-12-23T02:07:53.718Z,92.00
2022-12-23T02:10:59.136Z,91.85
2022-12-23T02:14:26.131Z,91.05
2022-12-23T02:17:21.090Z,91.50
2022-12-23T02:20:20.305Z,91.76
2022-12-23T02:23:14.111Z,91.64
2022-12-23T02:26:18.761Z,91.05
2022-12-23T02:29:15.821Z,91.31
2022-12-23T02:32:16.176Z,91.04
2022-12-23T02:35:04.437Z,91.06
2022-12-23T02:38:12.203Z,91.37
2022-12-23T02:41:14.179Z,91.21
2022-12-23T02:43:51.786Z,90.60
2022-12-23T02:46:43.829Z,91.35
2022-12-23T02:49:25.622Z,92.00
2022-12-23T02:52:05.736Z,91.45
2022-12-23T02:54:54.342Z,91.14
2022-12-23T02:57:36.871Z,91.42
2022-12-23T03:00:12.221Z,91.07
2022-12-23T03:02:45.385Z,91.44
2022-12-23T03:05:48.943Z,90.83
2022-12-23T03:08:40.731Z,90.91
2022-12-23T03:11:19.797Z,90.61
2022-12-23T03:14:32.037Z,91.02
2022-12-23T03:17:25.570Z,90.92
2022-12-23T03:20:44.452Z,90.98
2022-12-23T03:23:33.698Z,91.19
2022-12-23T03:26:16.765Z,90.61
2022-12-23T03:29:01.874Z,90.20
2022-12-23T03:31:37.953Z,90.83
2022-12-23T03:34:20.153Z,91.15
2022-12-23T03:36:57.770Z,90.64
2022-12-23T03:39:55.352Z,91.15
2022-12-23T03:42:35.946Z,90.54
2022-12-23T03:45:38.283Z,90.89
2022-12-23T03:48:27.948Z,90.52
2022-12-23T03:51:11.266Z,90.50
2022-12-23T03:54:02.801Z,90.62
2022-12-23T03:56:51.475Z,90.49
2022-12-23T03:59:33.994Z,90.14
2022-12-23T04:02:48.217Z,90.63
2022-12-23T04:05:29.907Z,90.39
2022-12-23T04:08:16.209Z,89.99
2022-12-23T04:10:49.635Z,89.84
2022-12-23T04:13:22.359Z,89.85
2022-12-23T04:15:58.445Z,90.00
2022-12-23T04:18:31.259Z,89.92
2022-12-23T04:21:04.228Z,89.22
2022-12-23T04:23:36.851Z,89.92
2022-12-23T04:26:09.553Z,90.93
2022-12-23T04:28:42.306Z,90.96
2022-12-23T04:31:15.104Z,91.67
2022-12-23T04:33:48.106Z,90.96
2022-12-23T04:36:20.637Z,90.71
2022-12-23T04:38:53.199Z,90.77
2022-12-23T04:41:25.853Z,91.32
2022-12-23T04:43:58.503Z,91.18
2022-12-23T04:46:31.258Z,91.36
2022-12-23T04:49:03.962Z,90.58
2022-12-23T04:51:36.601Z,90.02
2022-12-23T04:54:09.297Z,91.06
2022-12-23T04:56:42.161Z,90.47
2022-12-23T04:59:14.984Z,90.15
2022-12-23T05:01:48.029Z,90.21
2022-12-23T05:04:20.839Z,90.74
2022-12-23T05:06:53.579Z,90.41
2022-12-23T05:09:26.473Z,90.65
2022-12-23T05:11:59.069Z,90.16
2022-12-23T05:14:31.831Z,91.02
2022-12-23T05:17:07.785Z,90.45
2022-12-23T05:19:40.826Z,90.78
2022-12-23T05:22:16.159Z,91.29
2022-12-23T05:24:49.444Z,90.25
2022-12-23T05:27:22.677Z,90.11
2022-12-23T05:29:55.981Z,89.98
2022-12-23T05:32:28.896Z,90.04
2022-12-23T05:35:01.894Z,90.69
2022-12-23T05:37:34.666Z,90.05
2022-12-23T05:40:08.507Z,89.61
2022-12-23T05:42:41.749Z,90.13
2022-12-23T05:45:17.334Z,90.28
2022-12-23T05:47:50.347Z,90.00
2022-12-23T05:50:23.685Z,90.53
2022-12-23T05:52:57.965Z,89.71
2022-12-23T05:55:30.882Z,89.93
2022-12-23T05:58:03.626Z,89.32
2022-12-23T06:00:37.097Z,89.49
2022-12-23T06:03:10.477Z,89.18
2022-12-23T06:05:44.764Z,89.83
2022-12-23T06:08:18.812Z,89.88
2022-12-23T06:10:52.270Z,89.48
2022-12-23T06:13:25.191Z,89.35
2022-12-23T06:15:58.093Z,89.47
2022-12-23T06:18:30.953Z,89.92
2022-12-23T06:21:04.556Z,88.96
2022-12-23T06:23:37.616Z,89.49
2022-12-23T06:26:10.652Z,88.83
2022-12-23T06:28:43.787Z,88.95
2022-12-23T06:31:17.244Z,88.69
2022-12-23T06:33:50.190Z,88.79
2022-12-23T06:36:23.168Z,89.11
2022-12-23T06:38:56.191Z,89.31
2022-12-23T06:41:29.059Z,88.78
2022-12-23T06:44:04.583Z,88.79
2022-12-23T06:46:37.728Z,89.02
2022-12-23T06:49:13.685Z,89.08
2022-12-23T06:51:46.662Z,88.79
2022-12-23T06:54:19.422Z,88.49
2022-12-23T06:56:52.139Z,88.47
2022-12-23T06:59:25.003Z,88.90
2022-12-23T07:01:57.964Z,88.98
2022-12-23T07:04:30.949Z,88.70
2022-12-23T07:07:23.403Z,89.33
2022-12-23T07:10:00.399Z,89.47
2022-12-23T07:12:38.865Z,89.27
2022-12-23T07:15:13.743Z,89.28
2022-12-23T07:17:49.439Z,88.37
2022-12-23T07:20:22.357Z,88.30
2022-12-23T07:22:57.470Z,88.30
2022-12-23T07:25:32.585Z,88.62
2022-12-23T07:28:05.965Z,88.51
2022-12-23T07:30:40.457Z,89.02
2022-12-23T07:33:13.630Z,88.64
2022-12-23T07:35:48.993Z,88.21
2022-12-23T07:38:30.260Z,88.38
2022-12-23T07:41:03.319Z,88.52
2022-12-23T07:43:42.533Z,88.35
2022-12-23T07:46:15.493Z,88.58
2022-12-23T07:48:51.488Z,87.81
2022-12-23T07:51:26.659Z,87.91
2022-12-23T07:54:01.684Z,87.84
2022-12-23T07:56:40.980Z,87.91
2022-12-23T07:59:15.781Z,88.14
2022-12-23T08:01:49.443Z,88.45
2022-12-23T08:04:22.403Z,88.52
2022-12-23T08:06:55.570Z,88.04
2022-12-23T08:09:32.779Z,87.76
2022-12-23T08:12:06.376Z,88.29
2022-12-23T08:14:39.179Z,88.19
2022-12-23T08:17:14.458Z,88.24
2022-12-23T08:19:49.220Z,88.39
2022-12-23T08:25:09.856Z,87.86
2022-12-23T08:28:05.744Z,87.62
2022-12-23T08:30:41.212Z,87.54
2022-12-23T08:33:19.758Z,87.70
2022-12-23T08:35:55.338Z,87.93
2022-12-23T08:38:40.762Z,88.45
2022-12-23T08:41:25.045Z,87.66
2022-12-23T08:44:05.345Z,87.61
2022-12-23T08:46:51.063Z,87.35
2022-12-23T08:49:27.349Z,87.40
2022-12-23T08:52:08.336Z,87.27
2022-12-23T08:54:41.850Z,87.07
2022-12-23T08:57:25.256Z,87.06
2022-12-23T09:00:11.026Z,87.12
2022-12-23T09:02:48.227Z,87.20
2022-12-23T09:05:23.520Z,86.93
2022-12-23T09:07:59.764Z,87.54
2022-12-23T09:10:42.892Z,87.04
2022-12-23T09:13:26.215Z,87.24
2022-12-23T09:16:05.668Z,87.50
2022-12-23T09:18:38.740Z,87.74
2022-12-23T09:21:18.489Z,87.83
2022-12-23T09:23:52.163Z,87.40
2022-12-23T09:26:29.746Z,87.42
2022-12-23T09:29:03.841Z,87.27
2022-12-23T09:31:37.934Z,87.39
2022-12-23T09:34:11.323Z,87.20
2022-12-23T09:36:44.003Z,87.14
2022-12-23T09:39:16.712Z,87.23
2022-12-23T09:42:47.334Z,86.90
2022-12-23T09:46:21.651Z,86.72
2022-12-23T09:49:10.345Z,87.37
2022-12-23T09:51:48.479Z,86.80
2022-12-23T09:54:38.504Z,86.79
2022-12-23T09:57:30.511Z,87.01
2022-12-23T10:00:19.048Z,86.71
2022-12-23T10:03:10.394Z,86.93
2022-12-23T10:05:56.314Z,86.64
2022-12-23T10:08:39.532Z,86.94
2022-12-23T10:11:21.230Z,86.32
2022-12-23T10:14:10.688Z,86.35
2022-12-23T10:16:49.637Z,86.57
2022-12-23T10:19:44.247Z,86.47
2022-12-23T10:22:32.249Z,87.38
2022-12-23T10:25:33.412Z,86.47
2022-12-23T10:28:06.243Z,87.22
2022-12-23T10:31:11.100Z,86.60
2022-12-23T10:33:57.195Z,86.63
2022-12-23T10:36:53.249Z,86.48
2022-12-23T10:39:44.832Z,86.01
2022-12-23T10:43:15.109Z,85.57
2022-12-23T10:46:31.637Z,85.31
2022-12-23T10:49:51.564Z,84.94
2022-12-23T10:52:32.694Z,84.98
2022-12-23T10:55:05.699Z,85.24
2022-12-23T10:57:38.555Z,84.78
2022-12-23T11:00:22.436Z,84.48
2022-12-23T11:03:32.018Z,85.56
2022-12-23T11:06:08.988Z,85.70
2022-12-23T11:08:42.544Z,85.09
2022-12-23T11:11:15.154Z,85.80
2022-12-23T11:13:47.986Z,85.45
2022-12-23T11:16:27.926Z,85.45
2022-12-23T11:19:14.306Z,85.79
2022-12-23T11:21:56.891Z,86.10
2022-12-23T11:24:38.246Z,85.95
2022-12-23T11:27:18.594Z,85.85
2022-12-23T11:29:54.841Z,85.78
2022-12-23T11:32:29.278Z,85.81
2022-12-23T11:35:02.216Z,85.93
2022-12-23T11:37:43.082Z,85.99
2022-12-23T11:40:25.252Z,86.30
2022-12-23T11:43:14.492Z,86.22
2022-12-23T11:45:47.342Z,86.51
2022-12-23T11:48:30.452Z,86.72
2022-12-23T11:51:04.397Z,86.88
2022-12-23T11:53:42.369Z,86.90
2022-12-23T11:56:25.701Z,87.30
2022-12-23T11:59:33.739Z,86.95
2022-12-23T12:02:32.516Z,87.18
2022-12-23T12:05:41.704Z,87.56
2022-12-23T12:08:26.267Z,88.00
2022-12-23T12:11:17.694Z,88.26
2022-12-23T12:14:06.102Z,88.04
2022-12-23T12:21:53.692Z,88.17
2022-12-23T12:24:53.389Z,88.04
2022-12-23T12:27:38.346Z,88.07
2022-12-23T12:30:19.758Z,87.82
2022-12-23T12:33:38.227Z,87.37
2022-12-23T12:36:51.298Z,87.37
2022-12-23T12:39:36.328Z,88.27
2022-12-23T12:42:50.495Z,87.88
2022-12-23T12:45:48.730Z,87.67
2022-12-23T12:51:43.057Z,87.47
2022-12-23T12:54:32.205Z,87.32
2022-12-23T12:57:04.918Z,87.34
2022-12-23T12:59:40.982Z,87.70
2022-12-23T13:02:55.620Z,88.21
2022-12-23T13:06:42.030Z,88.01
2022-12-23T13:09:57.216Z,88.00
2022-12-23T13:13:36.418Z,87.93
2022-12-23T13:20:01.758Z,89.43
2022-12-23T13:22:48.338Z,89.13
2022-12-23T13:26:03.721Z,88.74
2022-12-23T13:29:48.930Z,88.78
2022-12-23T13:32:39.832Z,89.52
2022-12-23T13:39:16.680Z,89.51
2022-12-23T13:42:23.443Z,89.30
2022-12-23T13:45:14.259Z,89.70
2022-12-23T13:48:22.208Z,89.23
2022-12-23T13:51:13.144Z,89.49
2022-12-23T13:54:32.945Z,88.97
2022-12-23T13:57:41.865Z,89.12
2022-12-23T14:00:20.235Z,89.58
2022-12-23T14:03:14.697Z,89.53
2022-12-23T14:05:53.675Z,89.82
2022-12-23T14:08:50.486Z,89.56
2022-12-23T14:11:37.289Z,89.58
2022-12-23T14:14:23.865Z,89.40
2022-12-23T14:17:30.852Z,89.27
2022-12-23T14:20:39.662Z,89.14
2022-12-23T14:23:41.329Z,89.01
2022-12-23T14:26:38.255Z,89.19
2022-12-23T14:29:39.424Z,89.74
2022-12-23T14:32:47.048Z,89.35
2022-12-23T14:35:51.203Z,89.13
2022-12-23T14:38:29.888Z,89.08
2022-12-23T14:41:35.999Z,89.17
2022-12-23T14:44:47.950Z,89.10
2022-12-23T14:47:41.467Z,89.26
2022-12-23T14:50:32.962Z,89.47
2022-12-23T14:53:22.617Z,89.30
2022-12-23T14:56:10.718Z,89.14
2022-12-23T14:58:46.167Z,90.03
2022-12-23T15:01:30.395Z,90.16
2022-12-23T15:04:23.239Z,89.90
2022-12-23T15:07:09.565Z,90.73
2022-12-23T15:10:00.708Z,91.18
2022-12-23T15:12:46.838Z,91.55
2022-12-23T15:15:33.973Z,90.86
2022-12-23T15:18:21.608Z,91.76
2022-12-23T15:21:13.726Z,91.51
2022-12-23T15:23:53.166Z,91.14
2022-12-23T15:26:35.669Z,91.06
2022-12-23T15:29:18.648Z,91.33
2022-12-23T15:32:00.016Z,91.18
2022-12-23T15:34:36.872Z,91.87
2022-12-23T15:37:24.206Z,91.70
2022-12-23T15:40:12.262Z,91.57
2022-12-23T15:43:08.192Z,91.50
2022-12-23T15:45:43.211Z,90.96
2022-12-23T15:48:32.643Z,90.99
2022-12-23T15:51:36.548Z,91.09
2022-12-23T15:54:40.123Z,91.24
2022-12-23T15:57:20.086Z,91.17
2022-12-23T15:59:53.918Z,91.27
2022-12-23T16:02:59.889Z,91.28
2022-12-23T16:05:32.114Z,90.82
2022-12-23T16:11:58.876Z,92.14
2022-12-23T16:18:43.617Z,90.53
2022-12-23T16:31:08.293Z,90.02
2022-12-23T16:37:16.070Z,90.35
2022-12-23T16:40:35.074Z,90.00
2022-12-23T16:46:27.332Z,89.79
2022-12-23T16:55:53.739Z,89.32
2022-12-23T16:58:35.159Z,89.35
2022-12-23T17:01:44.377Z,89.72
2022-12-23T17:04:17.881Z,89.70
2022-12-23T17:06:59.434Z,89.38
2022-12-23T17:10:04.419Z,89.53
2022-12-23T17:12:48.656Z,90.00
2022-12-23T17:15:25.689Z,90.33
2022-12-23T17:21:01.305Z,89.68
2022-12-23T17:23:42.133Z,89.30
2022-12-23T17:26:43.680Z,88.79
2022-12-23T17:29:24.698Z,88.68
2022-12-23T17:32:00.851Z,87.56
2022-12-23T17:37:58.855Z,87.43
2022-12-23T17:40:58.101Z,87.20
2022-12-23T17:43:42.628Z,86.86
2022-12-23T17:46:25.151Z,87.19
2022-12-23T17:49:10.887Z,87.09
2022-12-23T17:51:51.245Z,87.08
2022-12-23T17:54:31.939Z,86.85
2022-12-23T18:00:33.870Z,86.48
2022-12-23T18:03:24.513Z,86.70
2022-12-23T18:06:02.328Z,86.53
2022-12-23T18:15:50.189Z,86.90
2022-12-23T18:18:43.773Z,86.52
2022-12-23T18:22:04.576Z,86.29
2022-12-23T18:24:42.015Z,85.97
2022-12-23T18:27:21.134Z,86.15
2022-12-23T18:29:59.477Z,85.92
2022-12-23T18:32:33.405Z,85.48
2022-12-23T18:35:50.562Z,85.44
2022-12-23T18:38:29.490Z,85.09
2022-12-23T18:41:07.966Z,85.20
2022-12-23T18:43:47.017Z,85.16
2022-12-23T18:46:23.016Z,84.89
2022-12-23T18:48:59.606Z,84.71
2022-12-23T18:51:38.866Z,84.30
2022-12-23T18:54:21.204Z,84.32
2022-12-23T18:56:55.384Z,83.93
2022-12-23T18:59:30.330Z,83.65
2022-12-23T19:02:06.731Z,83.67
2022-12-23T19:04:39.938Z,83.61
2022-12-23T19:07:14.798Z,83.93
2022-12-23T19:09:53.275Z,83.56
2022-12-23T19:12:36.105Z,83.37
2022-12-23T19:15:09.470Z,83.68
2022-12-23T19:17:42.390Z,83.19
2022-12-23T19:20:17.911Z,84.24
2022-12-23T19:22:50.694Z,83.99
2022-12-23T19:25:23.419Z,84.07
2022-12-23T19:27:56.781Z,84.29
2022-12-23T19:30:32.260Z,84.59
2022-12-23T19:33:07.842Z,84.48
2022-12-23T19:35:46.453Z,84.70
2022-12-23T19:38:19.222Z,84.96
2022-12-23T19:41:00.552Z,85.23
2022-12-23T19:43:35.875Z,85.42
2022-12-23T19:46:10.829Z,85.76
2022-12-23T19:48:52.561Z,85.99
2022-12-23T19:51:28.345Z,86.53
2022-12-23T19:54:01.328Z,87.17
2022-12-23T19:56:38.240Z,87.15
2022-12-23T19:59:12.440Z,87.06
2022-12-23T20:01:45.955Z,87.76
2022-12-23T20:04:21.062Z,87.93
2022-12-23T20:06:53.701Z,87.87
2022-12-23T20:09:29.530Z,88.26
2022-12-23T20:12:04.297Z,88.45
2022-12-23T20:14:37.268Z,88.80
2022-12-23T20:17:10.671Z,89.71
2022-12-23T20:19:46.434Z,89.11
2022-12-23T20:23:18.540Z,89.47
2022-12-23T20:25:53.779Z,89.10
2022-12-23T20:28:26.833Z,88.84
2022-12-23T20:31:25.048Z,88.33
2022-12-23T20:34:01.023Z,87.54
2022-12-23T20:36:35.507Z,87.55
2022-12-23T20:39:11.234Z,87.34
2022-12-23T20:41:44.924Z,86.98
2022-12-23T20:44:34.662Z,87.18
2022-12-23T20:47:09.875Z,86.99
2022-12-23T20:49:42.716Z,86.57
2022-12-23T20:52:15.742Z,86.21
2022-12-23T20:54:48.481Z,86.07
2022-12-23T20:57:26.273Z,85.64
2022-12-23T20:59:59.782Z,85.54
2022-12-23T21:02:32.685Z,85.43
2022-12-23T21:05:07.529Z,84.98
2022-12-23T21:07:40.516Z,85.41
2022-12-23T21:10:17.684Z,85.12
2022-12-23T21:12:50.579Z,84.18
2022-12-23T21:15:26.229Z,84.01
2022-12-23T21:17:59.593Z,83.46
2022-12-23T21:20:32.320Z,83.77
2022-12-23T21:23:05.615Z,84.15
2022-12-23T21:25:38.415Z,83.65
2022-12-23T21:28:11.519Z,83.67
2022-12-23T21:30:44.656Z,84.17
2022-12-23T21:33:17.728Z,83.45
2022-12-23T21:35:50.409Z,83.31
2022-12-23T21:38:23.157Z,82.53
2022-12-23T21:41:03.405Z,82.35
2022-12-23T21:43:40.237Z,81.79
2022-12-23T21:46:20.072Z,81.46
2022-12-23T21:48:55.791Z,81.04
2022-12-23T21:51:39.493Z,80.83
2022-12-23T21:54:14.037Z,80.79
2022-12-23T21:56:46.660Z,80.17
2022-12-23T21:59:19.434Z,79.94
2022-12-23T22:01:52.385Z,79.78
2022-12-23T22:04:25.319Z,80.10
2022-12-23T22:06:58.166Z,79.75
2022-12-23T22:09:32.702Z,79.68
2022-12-23T22:12:05.611Z,79.64
2022-12-23T22:14:39.537Z,79.47
2022-12-23T22:17:12.145Z,79.78
2022-12-23T22:19:44.703Z,79.73
2022-12-23T22:22:17.315Z,80.06
2022-12-23T22:24:49.925Z,79.34
2022-12-23T22:27:22.544Z,79.53
2022-12-23T22:29:55.910Z,79.58
2022-12-23T22:32:28.626Z,79.59
2022-12-23T22:35:01.614Z,79.65
2022-12-23T22:37:34.628Z,79.29
2022-12-23T22:40:09.412Z,79.04
2022-12-23T22:42:42.045Z,78.55
2022-12-23T22:45:14.680Z,78.49
2022-12-23T22:47:47.438Z,78.63
2022-12-23T22:50:20.118Z,78.20
2022-12-23T22:52:52.919Z,78.23
2022-12-23T22:55:25.609Z,78.73
2022-12-23T22:57:58.156Z,78.41
2022-12-23T23:00:30.992Z,78.20
2022-12-23T23:03:03.805Z,78.75
2022-12-23T23:05:36.493Z,78.40
2022-12-23T23:08:09.149Z,78.07
2022-12-23T23:10:41.957Z,79.22
2022-12-23T23:13:14.516Z,79.15
2022-12-23T23:15:48.600Z,79.12
2022-12-23T23:18:21.543Z,79.73
2022-12-23T23:20:54.243Z,80.09
2022-12-23T23:23:27.067Z,79.86
2022-12-23T23:25:59.782Z,80.10
2022-12-23T23:28:32.314Z,80.79
2022-12-23T23:31:39.807Z,80.81
2022-12-23T23:33:58.187Z,80.82
2022-12-23T23:36:30.903Z,80.80
2022-12-23T23:39:03.772Z,81.08
2022-12-23T23:41:36.365Z,81.40
2022-12-23T23:44:09.490Z,81.58
2022-12-23T23:46:42.153Z,81.23
2022-12-23T23:49:15.321Z,81.21
2022-12-23T23:51:47.955Z,80.99
2022-12-23T23:54:20.537Z,81.53
2022-12-23T23:56:53.214Z,82.21
2022-12-23T23:59:25.857Z,82.09
